Time,TemperatureF,DewpointF,PressureIn,WindDirection,WindDirectionDegrees,WindSpeedMPH,WindSpeedGustMPH,Humidity,HourlyPrecipIn,Conditions,Clouds,dailyrainin,SoftwareType,DateUTC
2014-04-19 00:52:00,61.0,41.0,-100.00,SSE,167,3.0,4.0,47,-99.99,,,-99.99,,2014-04-19 07:52:00,
2014-04-19 01:02:00,61.0,41.0,-100.00,SSE,167,3.0,4.0,47,-99.99,,,-99.99,,2014-04-19 08:02:00,
2014-04-19 01:42:00,60.0,39.0,-100.00,ESE,121,1.0,5.0,46,-99.99,,,-99.99,,2014-04-19 08:42:00,
2014-04-19 01:52:00,60.0,39.0,-100.00,ESE,121,1.0,5.0,46,-99.99,,,-99.99,,2014-04-19 08:52:00,
2014-04-19 02:12:00,59.0,39.0,-100.00,SE,130,4.0,6.0,48,-99.99,,,-99.99,,2014-04-19 09:12:00,
2014-04-19 02:54:00,58.0,38.0,-100.00,SE,130,3.0,5.0,48,-99.99,,,-99.99,,2014-04-19 09:54:00,
2014-04-19 03:03:00,58.0,38.0,-100.00,SE,130,3.0,5.0,48,-99.99,,,-99.99,,2014-04-19 10:03:00,
2014-04-19 03:23:00,56.0,38.0,-100.00,SE,138,1.0,2.0,50,-99.99,,,-99.99,,2014-04-19 10:23:00,
2014-04-19 03:42:00,54.0,37.0,-100.00,East,95,1.0,2.0,53,-99.99,,,-99.99,,2014-04-19 10:42:00,
2014-04-19 03:54:00,54.0,37.0,-100.00,East,95,1.0,2.0,53,-99.99,,,-99.99,,2014-04-19 10:54:00,
2014-04-19 04:02:00,54.0,37.0,-100.00,East,95,1.0,2.0,53,-99.99,,,-99.99,,2014-04-19 11:02:00,
2014-04-19 04:43:00,54.0,37.0,-100.00,South,172,4.0,7.0,52,-99.99,,,-99.99,,2014-04-19 11:43:00,
2014-04-19 05:22:00,52.0,35.0,-100.00,East,86,3.0,4.0,53,-99.99,,,-99.99,,2014-04-19 12:22:00,
2014-04-19 05:42:00,48.0,33.0,-100.00,NNW,343,1.0,2.0,55,-99.99,,,-99.99,,2014-04-19 12:42:00,
2014-04-19 05:52:00,48.0,33.0,-100.00,NNW,343,1.0,2.0,55,-99.99,,,-99.99,,2014-04-19 12:52:00,
2014-04-19 06:11:00,47.0,33.0,-100.00,ENE,78,3.0,3.0,57,-99.99,,,-99.99,,2014-04-19 13:11:00,
2014-04-19 06:52:00,46.0,32.0,-100.00,ESE,109,3.0,4.0,59,-99.99,,,-99.99,,2014-04-19 13:52:00,
2014-04-19 07:01:00,46.0,32.0,-100.00,ESE,109,3.0,4.0,59,-99.99,,,-99.99,,2014-04-19 14:01:00,
2014-04-19 07:22:00,46.0,33.0,-100.00,SW,227,1.0,3.0,60,-99.99,,,-99.99,,2014-04-19 14:22:00,
2014-04-19 07:32:00,46.0,33.0,-100.00,SW,227,1.0,3.0,60,-99.99,,,-99.99,,2014-04-19 14:32:00,
2014-04-19 07:52:00,46.0,33.0,-100.00,North,354,2.0,3.0,61,-99.99,,,-99.99,,2014-04-19 14:52:00,
2014-04-19 08:11:00,51.0,35.0,-100.00,North,-999,0.0,0.0,55,-99.99,,,-99.99,,2014-04-19 15:11:00,
2014-04-19 08:51:00,62.0,41.0,-100.00,NW,304,2.0,4.0,46,-99.99,,,-99.99,,2014-04-19 15:51:00,
2014-04-19 08:54:00,61.0,40.0,-100.00,WSW,244,2.0,3.0,45,-99.99,,,-99.99,,2014-04-19 15:54:00,
2014-04-19 09:03:00,61.0,40.0,-100.00,WSW,244,2.0,3.0,45,-99.99,,,-99.99,,2014-04-19 16:03:00,
2014-04-19 09:23:00,62.0,41.0,-100.00,NW,304,2.0,4.0,46,-99.99,,,-99.99,,2014-04-19 16:23:00,
2014-04-19 09:33:00,62.0,41.0,-100.00,NW,304,2.0,4.0,46,-99.99,,,-99.99,,2014-04-19 16:33:00,
2014-04-19 09:43:00,62.0,41.0,-100.00,NW,304,2.0,4.0,46,-99.99,,,-99.99,,2014-04-19 16:43:00,
2014-04-19 19:42:00,72.0,25.0,-100.00,SSW,203,8.0,12.0,17,-99.99,,,-99.99,,2014-04-20 02:42:00,
2014-04-19 20:12:00,69.0,24.0,-100.00,SSW,206,6.0,9.0,18,-99.99,,,-99.99,,2014-04-20 03:12:00,
2014-04-19 20:54:00,66.0,20.0,-100.00,East,85,5.0,6.0,17,-99.99,,,-99.99,,2014-04-20 03:54:00,
2014-04-19 21:03:00,-999.0,-99.9,-100.00,East,85,5.0,6.0,-999,-99.99,,,-99.99,,2014-04-20 04:03:00,
2014-04-19 21:23:00,64.0,18.0,-100.00,East,96,2.0,3.0,17,-99.99,,,-99.99,,2014-04-20 04:23:00,
2014-04-19 21:33:00,64.0,18.0,-100.00,East,96,2.0,3.0,17,-99.99,,,-99.99,,2014-04-20 04:33:00,
2014-04-19 22:13:00,64.0,18.0,-100.00,ESE,110,8.0,9.0,17,-99.99,,,-99.99,,2014-04-20 05:13:00,
2014-04-19 22:53:00,60.0,15.0,-100.00,NNW,339,2.0,5.0,17,-99.99,,,-99.99,,2014-04-20 05:53:00,
2014-04-19 23:12:00,60.0,15.0,-100.00,South,184,3.0,6.0,17,-99.99,,,-99.99,,2014-04-20 06:12:00,
2014-04-19 23:21:00,60.0,15.0,-100.00,South,184,3.0,6.0,17,-99.99,,,-99.99,,2014-04-20 06:21:00,
2014-04-19 23:42:00,59.0,17.0,-100.00,South,186,3.0,4.0,19,-99.99,,,-99.99,,2014-04-20 06:42:00,